sensor_id;sensor_type;location;lat;lon;timestamp;temperature;humidity
16160;DHT22;8185;57.818;15.224;2023-05-10T00:02:14;6.60;99.90
16160;DHT22;8185;57.818;15.224;2023-05-10T00:04:42;6.60;99.90
16160;DHT22;8185;57.818;15.224;2023-05-10T00:07:09;6.60;99.90
16160;DHT22;8185;57.818;15.224;2023-05-10T00:09:37;6.50;99.90
16160;DHT22;8185;57.818;15.224;2023-05-10T00:12:06;6.40;99.90
16160;DHT22;8185;57.818;15.224;2023-05-10T00:14:33;6.40;99.90
16160;DHT22;8185;57.818;15.224;2023-05-10T00:17:01;6.30;99.90
16160;DHT22;8185;57.818;15.224;2023-05-10T00:19:28;6.20;99.90
16160;DHT22;8185;57.818;15.224;2023-05-10T00:21:55;6.20;99.90
16160;DHT22;8185;57.818;15.224;2023-05-10T00:24:22;6.10;99.90
16160;DHT22;8185;57.818;15.224;2023-05-10T00:26:49;6.00;99.90
16160;DHT22;8185;57.818;15.224;2023-05-10T00:29:18;5.90;99.90
16160;DHT22;8185;57.818;15.224;2023-05-10T00:31:45;5.70;99.90
16160;DHT22;8185;57.818;15.224;2023-05-10T00:34:12;5.70;99.90
16160;DHT22;8185;57.818;15.224;2023-05-10T00:36:39;5.50;99.90
16160;DHT22;8185;57.818;15.224;2023-05-10T00:39:07;5.40;99.90
16160;DHT22;8185;57.818;15.224;2023-05-10T00:41:34;5.40;99.90
16160;DHT22;8185;57.818;15.224;2023-05-10T00:44:01;5.40;99.90
16160;DHT22;8185;57.818;15.224;2023-05-10T00:46:30;5.50;99.90
16160;DHT22;8185;57.818;15.224;2023-05-10T00:48:57;5.50;99.90
16160;DHT22;8185;57.818;15.224;2023-05-10T00:51:25;5.50;99.90
16160;DHT22;8185;57.818;15.224;2023-05-10T00:53:52;5.60;99.90
16160;DHT22;8185;57.818;15.224;2023-05-10T00:56:19;5.70;99.90
16160;DHT22;8185;57.818;15.224;2023-05-10T00:58:49;5.70;99.90
16160;DHT22;8185;57.818;15.224;2023-05-10T01:01:16;5.80;99.90
16160;DHT22;8185;57.818;15.224;2023-05-10T01:03:45;5.70;99.90
16160;DHT22;8185;57.818;15.224;2023-05-10T01:06:13;5.70;99.90
16160;DHT22;8185;57.818;15.224;2023-05-10T01:08:40;5.70;99.90
16160;DHT22;8185;57.818;15.224;2023-05-10T01:11:08;5.60;99.90
16160;DHT22;8185;57.818;15.224;2023-05-10T01:13:37;5.50;99.90
16160;DHT22;8185;57.818;15.224;2023-05-10T01:16:05;5.50;99.90
16160;DHT22;8185;57.818;15.224;2023-05-10T01:18:34;5.50;99.90
16160;DHT22;8185;57.818;15.224;2023-05-10T01:21:29;5.40;99.90
16160;DHT22;8185;57.818;15.224;2023-05-10T01:24:14;5.30;99.90
16160;DHT22;8185;57.818;15.224;2023-05-10T01:30:05;5.30;99.90
16160;DHT22;8185;57.818;15.224;2023-05-10T01:32:40;5.40;99.90
16160;DHT22;8185;57.818;15.224;2023-05-10T01:35:17;5.30;99.90
16160;DHT22;8185;57.818;15.224;2023-05-10T01:37:49;5.20;99.90
16160;DHT22;8185;57.818;15.224;2023-05-10T01:40:21;5.00;99.90
16160;DHT22;8185;57.818;15.224;2023-05-10T01:42:53;4.80;99.90
16160;DHT22;8185;57.818;15.224;2023-05-10T01:45:27;4.70;99.90
16160;DHT22;8185;57.818;15.224;2023-05-10T01:48:05;4.50;99.90
16160;DHT22;8185;57.818;15.224;2023-05-10T01:50:35;4.50;99.90
16160;DHT22;8185;57.818;15.224;2023-05-10T01:53:06;4.40;99.90
16160;DHT22;8185;57.818;15.224;2023-05-10T01:55:39;4.30;99.90
16160;DHT22;8185;57.818;15.224;2023-05-10T01:58:09;4.20;99.90
16160;DHT22;8185;57.818;15.224;2023-05-10T02:00:39;4.20;99.90
16160;DHT22;8185;57.818;15.224;2023-05-10T02:03:10;4.10;99.90
16160;DHT22;8185;57.818;15.224;2023-05-10T02:05:39;4.00;99.90
16160;DHT22;8185;57.818;15.224;2023-05-10T02:08:07;4.00;99.90
16160;DHT22;8185;57.818;15.224;2023-05-10T02:10:35;4.10;99.90
16160;DHT22;8185;57.818;15.224;2023-05-10T02:13:03;4.10;99.90
16160;DHT22;8185;57.818;15.224;2023-05-10T02:15:32;4.10;99.90
16160;DHT22;8185;57.818;15.224;2023-05-10T02:18:02;4.00;99.90
16160;DHT22;8185;57.818;15.224;2023-05-10T02:20:33;4.20;99.90
16160;DHT22;8185;57.818;15.224;2023-05-10T02:23:03;4.30;99.90
16160;DHT22;8185;57.818;15.224;2023-05-10T02:25:31;4.30;99.90
16160;DHT22;8185;57.818;15.224;2023-05-10T02:28:01;4.30;99.90
16160;DHT22;8185;57.818;15.224;2023-05-10T02:30:29;4.20;99.90
16160;DHT22;8185;57.818;15.224;2023-05-10T02:32:58;4.20;99.90
16160;DHT22;8185;57.818;15.224;2023-05-10T02:35:27;4.20;99.90
16160;DHT22;8185;57.818;15.224;2023-05-10T02:37:57;4.30;99.90
16160;DHT22;8185;57.818;15.224;2023-05-10T02:40:26;4.30;99.90
16160;DHT22;8185;57.818;15.224;2023-05-10T02:42:56;4.20;99.90
16160;DHT22;8185;57.818;15.224;2023-05-10T02:45:27;4.20;99.90
16160;DHT22;8185;57.818;15.224;2023-05-10T02:47:56;4.30;99.90
16160;DHT22;8185;57.818;15.224;2023-05-10T02:50:25;4.30;99.90
16160;DHT22;8185;57.818;15.224;2023-05-10T02:52:57;4.40;99.90
16160;DHT22;8185;57.818;15.224;2023-05-10T02:55:31;4.50;99.90
16160;DHT22;8185;57.818;15.224;2023-05-10T02:58:01;4.60;99.90
16160;DHT22;8185;57.818;15.224;2023-05-10T03:00:28;4.70;99.90
16160;DHT22;8185;57.818;15.224;2023-05-10T03:02:56;4.70;99.90
16160;DHT22;8185;57.818;15.224;2023-05-10T03:05:23;4.70;99.90
16160;DHT22;8185;57.818;15.224;2023-05-10T03:07:51;4.60;99.90
16160;DHT22;8185;57.818;15.224;2023-05-10T03:10:22;4.60;99.90
16160;DHT22;8185;57.818;15.224;2023-05-10T03:13:06;4.60;99.90
16160;DHT22;8185;57.818;15.224;2023-05-10T03:15:40;4.60;99.90
16160;DHT22;8185;57.818;15.224;2023-05-10T03:18:10;4.60;99.90
16160;DHT22;8185;57.818;15.224;2023-05-10T03:20:43;4.60;99.90
16160;DHT22;8185;57.818;15.224;2023-05-10T03:23:20;4.70;99.90
16160;DHT22;8185;57.818;15.224;2023-05-10T03:25:50;4.60;99.90
16160;DHT22;8185;57.818;15.224;2023-05-10T03:28:18;4.70;99.90
16160;DHT22;8185;57.818;15.224;2023-05-10T03:30:46;4.60;99.90
16160;DHT22;8185;57.818;15.224;2023-05-10T03:33:13;4.70;99.90
16160;DHT22;8185;57.818;15.224;2023-05-10T03:35:41;4.70;99.90
16160;DHT22;8185;57.818;15.224;2023-05-10T03:38:09;4.80;99.90
16160;DHT22;8185;57.818;15.224;2023-05-10T03:40:37;4.90;99.90
16160;DHT22;8185;57.818;15.224;2023-05-10T03:43:05;5.00;99.90
16160;DHT22;8185;57.818;15.224;2023-05-10T03:45:33;5.00;99.90
16160;DHT22;8185;57.818;15.224;2023-05-10T03:48:00;5.10;99.90
16160;DHT22;8185;57.818;15.224;2023-05-10T03:50:27;5.30;99.90
16160;DHT22;8185;57.818;15.224;2023-05-10T03:52:54;5.40;99.90
16160;DHT22;8185;57.818;15.224;2023-05-10T03:55:23;5.50;99.90
16160;DHT22;8185;57.818;15.224;2023-05-10T03:57:50;5.70;99.90
16160;DHT22;8185;57.818;15.224;2023-05-10T04:00:20;5.80;99.90
16160;DHT22;8185;57.818;15.224;2023-05-10T04:02:48;5.90;99.90
16160;DHT22;8185;57.818;15.224;2023-05-10T04:05:16;5.90;99.90
16160;DHT22;8185;57.818;15.224;2023-05-10T04:07:43;6.00;99.90
16160;DHT22;8185;57.818;15.224;2023-05-10T04:10:11;6.00;99.90
16160;DHT22;8185;57.818;15.224;2023-05-10T04:12:38;6.10;99.90
16160;DHT22;8185;57.818;15.224;2023-05-10T04:15:06;6.20;99.90
16160;DHT22;8185;57.818;15.224;2023-05-10T04:17:35;6.30;99.90
16160;DHT22;8185;57.818;15.224;2023-05-10T04:20:03;6.40;99.90
16160;DHT22;8185;57.818;15.224;2023-05-10T04:22:32;6.40;99.90
16160;DHT22;8185;57.818;15.224;2023-05-10T04:24:59;6.50;99.90
16160;DHT22;8185;57.818;15.224;2023-05-10T04:27:26;6.60;99.90
16160;DHT22;8185;57.818;15.224;2023-05-10T04:29:54;6.70;99.90
16160;DHT22;8185;57.818;15.224;2023-05-10T04:32:21;6.70;99.90
16160;DHT22;8185;57.818;15.224;2023-05-10T04:34:50;6.80;99.90
16160;DHT22;8185;57.818;15.224;2023-05-10T04:37:17;6.90;99.90
16160;DHT22;8185;57.818;15.224;2023-05-10T04:39:45;7.10;99.90
16160;DHT22;8185;57.818;15.224;2023-05-10T04:42:12;7.20;99.90
16160;DHT22;8185;57.818;15.224;2023-05-10T04:44:40;7.30;99.90
16160;DHT22;8185;57.818;15.224;2023-05-10T04:47:08;7.40;99.90
16160;DHT22;8185;57.818;15.224;2023-05-10T04:49:35;7.50;99.90
16160;DHT22;8185;57.818;15.224;2023-05-10T04:52:04;7.70;99.90
16160;DHT22;8185;57.818;15.224;2023-05-10T04:54:31;7.80;99.90
16160;DHT22;8185;57.818;15.224;2023-05-10T04:56:59;8.00;99.90
16160;DHT22;8185;57.818;15.224;2023-05-10T04:59:26;8.20;99.90
16160;DHT22;8185;57.818;15.224;2023-05-10T05:01:53;8.30;99.90
16160;DHT22;8185;57.818;15.224;2023-05-10T05:04:20;8.40;99.90
16160;DHT22;8185;57.818;15.224;2023-05-10T05:06:49;8.60;99.90
16160;DHT22;8185;57.818;15.224;2023-05-10T05:09:17;8.70;99.90
16160;DHT22;8185;57.818;15.224;2023-05-10T05:11:44;8.80;99.90
16160;DHT22;8185;57.818;15.224;2023-05-10T05:14:12;8.90;99.90
16160;DHT22;8185;57.818;15.224;2023-05-10T05:16:39;9.00;99.90
16160;DHT22;8185;57.818;15.224;2023-05-10T05:19:06;9.10;99.90
16160;DHT22;8185;57.818;15.224;2023-05-10T05:21:33;9.30;99.90
16160;DHT22;8185;57.818;15.224;2023-05-10T05:24:00;9.30;99.90
16160;DHT22;8185;57.818;15.224;2023-05-10T05:26:29;9.50;99.90
16160;DHT22;8185;57.818;15.224;2023-05-10T05:28:56;9.50;99.90
16160;DHT22;8185;57.818;15.224;2023-05-10T05:31:23;9.70;99.90
16160;DHT22;8185;57.818;15.224;2023-05-10T05:33:50;9.80;99.90
16160;DHT22;8185;57.818;15.224;2023-05-10T05:36:18;9.90;99.90
16160;DHT22;8185;57.818;15.224;2023-05-10T05:38:45;10.00;99.90
16160;DHT22;8185;57.818;15.224;2023-05-10T05:41:12;10.10;99.90
16160;DHT22;8185;57.818;15.224;2023-05-10T05:43:41;10.10;99.90
16160;DHT22;8185;57.818;15.224;2023-05-10T05:46:08;10.20;99.90
16160;DHT22;8185;57.818;15.224;2023-05-10T05:48:35;10.30;99.90
16160;DHT22;8185;57.818;15.224;2023-05-10T05:51:03;10.40;99.90
16160;DHT22;8185;57.818;15.224;2023-05-10T05:53:30;10.60;99.90
16160;DHT22;8185;57.818;15.224;2023-05-10T05:55:58;10.70;99.90
16160;DHT22;8185;57.818;15.224;2023-05-10T05:58:25;10.80;99.90
16160;DHT22;8185;57.818;15.224;2023-05-10T06:00:55;10.90;99.90
16160;DHT22;8185;57.818;15.224;2023-05-10T06:03:22;10.90;99.90
16160;DHT22;8185;57.818;15.224;2023-05-10T06:05:49;11.10;99.90
16160;DHT22;8185;57.818;15.224;2023-05-10T06:08:16;11.20;99.90
16160;DHT22;8185;57.818;15.224;2023-05-10T06:10:44;11.30;99.90
16160;DHT22;8185;57.818;15.224;2023-05-10T06:13:11;11.40;99.90
16160;DHT22;8185;57.818;15.224;2023-05-10T06:15:38;11.60;99.90
16160;DHT22;8185;57.818;15.224;2023-05-10T06:18:07;11.80;99.90
16160;DHT22;8185;57.818;15.224;2023-05-10T06:20:34;11.90;99.90
16160;DHT22;8185;57.818;15.224;2023-05-10T06:23:01;12.00;99.90
16160;DHT22;8185;57.818;15.224;2023-05-10T06:25:29;12.10;99.90
16160;DHT22;8185;57.818;15.224;2023-05-10T06:27:56;12.10;99.90
16160;DHT22;8185;57.818;15.224;2023-05-10T06:30:24;12.20;99.90
16160;DHT22;8185;57.818;15.224;2023-05-10T06:32:54;12.40;99.90
16160;DHT22;8185;57.818;15.224;2023-05-10T06:35:23;12.60;99.90
16160;DHT22;8185;57.818;15.224;2023-05-10T06:37:50;12.70;99.90
16160;DHT22;8185;57.818;15.224;2023-05-10T06:40:18;12.80;99.90
16160;DHT22;8185;57.818;15.224;2023-05-10T06:42:45;13.00;99.90
16160;DHT22;8185;57.818;15.224;2023-05-10T06:45:13;13.10;99.90
16160;DHT22;8185;57.818;15.224;2023-05-10T06:47:41;13.20;99.90
16160;DHT22;8185;57.818;15.224;2023-05-10T06:50:09;13.30;99.90
16160;DHT22;8185;57.818;15.224;2023-05-10T06:52:38;13.50;99.90
16160;DHT22;8185;57.818;15.224;2023-05-10T06:55:06;13.70;99.90
16160;DHT22;8185;57.818;15.224;2023-05-10T06:57:34;13.90;99.90
16160;DHT22;8185;57.818;15.224;2023-05-10T07:00:02;14.00;99.90
16160;DHT22;8185;57.818;15.224;2023-05-10T07:02:31;14.10;99.90
16160;DHT22;8185;57.818;15.224;2023-05-10T07:04:58;14.10;99.90
16160;DHT22;8185;57.818;15.224;2023-05-10T07:07:25;14.20;99.90
16160;DHT22;8185;57.818;15.224;2023-05-10T07:09:54;14.20;99.90
16160;DHT22;8185;57.818;15.224;2023-05-10T07:12:22;14.40;99.90
16160;DHT22;8185;57.818;15.224;2023-05-10T07:14:49;14.50;99.90
16160;DHT22;8185;57.818;15.224;2023-05-10T07:17:16;14.60;99.90
16160;DHT22;8185;57.818;15.224;2023-05-10T07:19:43;14.70;99.80
16160;DHT22;8185;57.818;15.224;2023-05-10T07:22:11;15.00;99.90
16160;DHT22;8185;57.818;15.224;2023-05-10T07:24:38;15.10;99.90
16160;DHT22;8185;57.818;15.224;2023-05-10T07:27:07;15.00;99.10
16160;DHT22;8185;57.818;15.224;2023-05-10T07:29:34;15.00;97.70
16160;DHT22;8185;57.818;15.224;2023-05-10T07:32:01;15.10;95.80
16160;DHT22;8185;57.818;15.224;2023-05-10T07:34:29;15.10;97.10
16160;DHT22;8185;57.818;15.224;2023-05-10T07:36:58;15.20;96.10
16160;DHT22;8185;57.818;15.224;2023-05-10T07:39:25;15.10;93.90
16160;DHT22;8185;57.818;15.224;2023-05-10T07:41:53;15.10;94.30
16160;DHT22;8185;57.818;15.224;2023-05-10T07:44:21;15.30;95.30
16160;DHT22;8185;57.818;15.224;2023-05-10T07:46:49;15.50;94.60
16160;DHT22;8185;57.818;15.224;2023-05-10T07:49:16;15.70;93.70
16160;DHT22;8185;57.818;15.224;2023-05-10T07:51:43;15.60;93.70
16160;DHT22;8185;57.818;15.224;2023-05-10T07:54:10;15.60;92.80
16160;DHT22;8185;57.818;15.224;2023-05-10T07:56:38;15.40;92.10
16160;DHT22;8185;57.818;15.224;2023-05-10T07:59:07;15.40;91.70
16160;DHT22;8185;57.818;15.224;2023-05-10T08:01:36;15.50;91.70
16160;DHT22;8185;57.818;15.224;2023-05-10T08:04:03;15.70;93.60
16160;DHT22;8185;57.818;15.224;2023-05-10T08:06:31;16.00;93.10
16160;DHT22;8185;57.818;15.224;2023-05-10T08:08:58;16.10;90.80
16160;DHT22;8185;57.818;15.224;2023-05-10T08:11:25;16.10;91.00
16160;DHT22;8185;57.818;15.224;2023-05-10T08:13:53;16.20;90.50
16160;DHT22;8185;57.818;15.224;2023-05-10T08:16:20;16.10;88.20
16160;DHT22;8185;57.818;15.224;2023-05-10T08:18:49;16.20;90.30
16160;DHT22;8185;57.818;15.224;2023-05-10T08:21:16;16.20;90.10
16160;DHT22;8185;57.818;15.224;2023-05-10T08:23:44;16.20;90.20
16160;DHT22;8185;57.818;15.224;2023-05-10T08:26:12;16.50;90.30
16160;DHT22;8185;57.818;15.224;2023-05-10T08:28:39;16.40;88.40
16160;DHT22;8185;57.818;15.224;2023-05-10T08:31:06;16.30;87.00
16160;DHT22;8185;57.818;15.224;2023-05-10T08:33:33;16.50;88.00
16160;DHT22;8185;57.818;15.224;2023-05-10T08:36:02;16.50;88.40
16160;DHT22;8185;57.818;15.224;2023-05-10T08:38:29;16.50;89.10
16160;DHT22;8185;57.818;15.224;2023-05-10T08:40:57;16.70;88.60
16160;DHT22;8185;57.818;15.224;2023-05-10T08:43:27;16.60;87.90
16160;DHT22;8185;57.818;15.224;2023-05-10T08:45:55;16.60;89.40
16160;DHT22;8185;57.818;15.224;2023-05-10T08:48:24;16.90;90.20
16160;DHT22;8185;57.818;15.224;2023-05-10T08:50:53;17.30;91.30
16160;DHT22;8185;57.818;15.224;2023-05-10T08:53:24;17.40;86.40
16160;DHT22;8185;57.818;15.224;2023-05-10T08:55:53;17.00;83.50
16160;DHT22;8185;57.818;15.224;2023-05-10T08:58:20;17.30;89.50
16160;DHT22;8185;57.818;15.224;2023-05-10T09:00:49;17.50;90.50
16160;DHT22;8185;57.818;15.224;2023-05-10T09:03:18;17.50;87.50
16160;DHT22;8185;57.818;15.224;2023-05-10T09:05:45;17.40;88.00
16160;DHT22;8185;57.818;15.224;2023-05-10T09:08:13;17.40;87.10
16160;DHT22;8185;57.818;15.224;2023-05-10T09:10:43;17.60;87.40
16160;DHT22;8185;57.818;15.224;2023-05-10T09:13:13;17.90;88.90
16160;DHT22;8185;57.818;15.224;2023-05-10T09:15:41;17.90;84.60
16160;DHT22;8185;57.818;15.224;2023-05-10T09:18:08;18.30;87.70
16160;DHT22;8185;57.818;15.224;2023-05-10T09:20:35;18.10;82.60
16160;DHT22;8185;57.818;15.224;2023-05-10T09:23:03;18.10;82.50
16160;DHT22;8185;57.818;15.224;2023-05-10T09:25:30;18.20;82.60
16160;DHT22;8185;57.818;15.224;2023-05-10T09:28:00;17.90;79.20
16160;DHT22;8185;57.818;15.224;2023-05-10T09:30:28;17.80;77.60
16160;DHT22;8185;57.818;15.224;2023-05-10T09:32:57;17.70;78.00
16160;DHT22;8185;57.818;15.224;2023-05-10T09:35:25;17.80;79.40
16160;DHT22;8185;57.818;15.224;2023-05-10T09:37:54;18.20;80.40
16160;DHT22;8185;57.818;15.224;2023-05-10T09:40:23;18.30;76.30
16160;DHT22;8185;57.818;15.224;2023-05-10T09:42:55;18.20;77.10
16160;DHT22;8185;57.818;15.224;2023-05-10T09:45:25;18.00;76.20
16160;DHT22;8185;57.818;15.224;2023-05-10T09:47:53;17.90;74.40
16160;DHT22;8185;57.818;15.224;2023-05-10T09:50:21;18.00;72.70
16160;DHT22;8185;57.818;15.224;2023-05-10T09:52:50;18.10;74.50
16160;DHT22;8185;57.818;15.224;2023-05-10T09:55:19;18.30;74.70
16160;DHT22;8185;57.818;15.224;2023-05-10T09:57:47;18.30;75.50
16160;DHT22;8185;57.818;15.224;2023-05-10T10:00:18;18.50;74.00
16160;DHT22;8185;57.818;15.224;2023-05-10T10:02:53;18.90;74.00
16160;DHT22;8185;57.818;15.224;2023-05-10T10:05:20;19.50;78.80
16160;DHT22;8185;57.818;15.224;2023-05-10T10:07:48;20.10;78.50
16160;DHT22;8185;57.818;15.224;2023-05-10T10:10:16;19.60;72.90
16160;DHT22;8185;57.818;15.224;2023-05-10T10:12:44;19.50;73.00
16160;DHT22;8185;57.818;15.224;2023-05-10T10:15:11;19.40;76.50
16160;DHT22;8185;57.818;15.224;2023-05-10T10:17:39;19.60;74.90
16160;DHT22;8185;57.818;15.224;2023-05-10T10:20:10;19.50;71.30
16160;DHT22;8185;57.818;15.224;2023-05-10T10:22:37;19.90;73.00
16160;DHT22;8185;57.818;15.224;2023-05-10T10:25:05;19.80;70.50
16160;DHT22;8185;57.818;15.224;2023-05-10T10:27:41;19.90;70.30
16160;DHT22;8185;57.818;15.224;2023-05-10T10:30:17;20.50;68.80
16160;DHT22;8185;57.818;15.224;2023-05-10T10:33:06;20.60;70.20
16160;DHT22;8185;57.818;15.224;2023-05-10T10:35:37;21.40;69.90
16160;DHT22;8185;57.818;15.224;2023-05-10T10:38:08;21.50;66.50
16160;DHT22;8185;57.818;15.224;2023-05-10T10:40:35;21.50;67.20
16160;DHT22;8185;57.818;15.224;2023-05-10T10:43:23;21.90;63.30
16160;DHT22;8185;57.818;15.224;2023-05-10T10:46:12;21.80;63.50
16160;DHT22;8185;57.818;15.224;2023-05-10T10:48:40;21.80;61.20
16160;DHT22;8185;57.818;15.224;2023-05-10T10:51:09;22.10;62.10
16160;DHT22;8185;57.818;15.224;2023-05-10T10:53:40;22.80;62.00
16160;DHT22;8185;57.818;15.224;2023-05-10T10:56:09;22.90;61.20
16160;DHT22;8185;57.818;15.224;2023-05-10T10:58:38;22.50;61.20
16160;DHT22;8185;57.818;15.224;2023-05-10T11:01:13;22.10;63.90
16160;DHT22;8185;57.818;15.224;2023-05-10T11:03:54;22.60;62.10
16160;DHT22;8185;57.818;15.224;2023-05-10T11:06:30;23.20;63.80
16160;DHT22;8185;57.818;15.224;2023-05-10T11:08:59;23.70;63.10
16160;DHT22;8185;57.818;15.224;2023-05-10T11:11:26;23.50;61.10
16160;DHT22;8185;57.818;15.224;2023-05-10T11:13:53;23.20;61.80
16160;DHT22;8185;57.818;15.224;2023-05-10T11:16:41;23.30;59.00
16160;DHT22;8185;57.818;15.224;2023-05-10T11:19:10;23.10;59.40
16160;DHT22;8185;57.818;15.224;2023-05-10T11:21:48;23.50;59.60
16160;DHT22;8185;57.818;15.224;2023-05-10T11:24:17;23.20;56.90
16160;DHT22;8185;57.818;15.224;2023-05-10T11:26:45;22.70;57.30
16160;DHT22;8185;57.818;15.224;2023-05-10T11:29:13;22.80;55.70
16160;DHT22;8185;57.818;15.224;2023-05-10T11:31:43;23.00;55.80
16160;DHT22;8185;57.818;15.224;2023-05-10T11:34:13;23.00;57.50
16160;DHT22;8185;57.818;15.224;2023-05-10T11:36:53;23.50;58.10
16160;DHT22;8185;57.818;15.224;2023-05-10T11:39:21;23.20;56.00
16160;DHT22;8185;57.818;15.224;2023-05-10T11:41:49;23.50;56.30
16160;DHT22;8185;57.818;15.224;2023-05-10T11:44:16;24.10;56.20
16160;DHT22;8185;57.818;15.224;2023-05-10T11:46:44;24.00;52.90
16160;DHT22;8185;57.818;15.224;2023-05-10T11:49:11;23.90;56.60
16160;DHT22;8185;57.818;15.224;2023-05-10T11:51:39;23.70;54.70
16160;DHT22;8185;57.818;15.224;2023-05-10T11:54:09;23.50;55.50
16160;DHT22;8185;57.818;15.224;2023-05-10T11:56:37;23.40;56.50
16160;DHT22;8185;57.818;15.224;2023-05-10T11:59:05;23.20;56.10
16160;DHT22;8185;57.818;15.224;2023-05-10T12:01:33;23.30;55.30
16160;DHT22;8185;57.818;15.224;2023-05-10T12:04:01;23.20;55.20
16160;DHT22;8185;57.818;15.224;2023-05-10T12:06:29;23.20;54.80
16160;DHT22;8185;57.818;15.224;2023-05-10T12:08:57;23.80;57.70
16160;DHT22;8185;57.818;15.224;2023-05-10T12:11:27;24.10;56.60
16160;DHT22;8185;57.818;15.224;2023-05-10T12:13:55;24.10;56.10
16160;DHT22;8185;57.818;15.224;2023-05-10T12:16:24;24.10;55.40
16160;DHT22;8185;57.818;15.224;2023-05-10T12:18:52;24.20;54.90
16160;DHT22;8185;57.818;15.224;2023-05-10T12:21:20;24.30;56.30
16160;DHT22;8185;57.818;15.224;2023-05-10T12:23:50;24.40;55.00
16160;DHT22;8185;57.818;15.224;2023-05-10T12:26:17;24.30;52.90
16160;DHT22;8185;57.818;15.224;2023-05-10T12:28:47;23.70;52.60
16160;DHT22;8185;57.818;15.224;2023-05-10T12:31:14;23.40;54.60
16160;DHT22;8185;57.818;15.224;2023-05-10T12:33:42;22.80;53.30
16160;DHT22;8185;57.818;15.224;2023-05-10T12:36:10;23.20;54.10
16160;DHT22;8185;57.818;15.224;2023-05-10T12:38:39;23.20;53.60
16160;DHT22;8185;57.818;15.224;2023-05-10T12:41:10;22.70;53.40
16160;DHT22;8185;57.818;15.224;2023-05-10T12:43:38;22.00;53.30
16160;DHT22;8185;57.818;15.224;2023-05-10T12:46:07;22.30;52.80
16160;DHT22;8185;57.818;15.224;2023-05-10T12:48:35;22.20;54.00
16160;DHT22;8185;57.818;15.224;2023-05-10T12:51:03;22.60;53.20
16160;DHT22;8185;57.818;15.224;2023-05-10T12:53:30;22.70;55.00
16160;DHT22;8185;57.818;15.224;2023-05-10T12:55:58;22.80;54.10
16160;DHT22;8185;57.818;15.224;2023-05-10T12:58:25;22.70;53.30
16160;DHT22;8185;57.818;15.224;2023-05-10T13:00:52;22.60;55.40
16160;DHT22;8185;57.818;15.224;2023-05-10T13:03:21;23.10;55.00
16160;DHT22;8185;57.818;15.224;2023-05-10T13:05:48;23.10;55.30
16160;DHT22;8185;57.818;15.224;2023-05-10T13:08:15;23.30;52.70
16160;DHT22;8185;57.818;15.224;2023-05-10T13:10:42;23.50;50.90
16160;DHT22;8185;57.818;15.224;2023-05-10T13:13:10;23.60;52.70
16160;DHT22;8185;57.818;15.224;2023-05-10T13:15:37;23.50;53.20
16160;DHT22;8185;57.818;15.224;2023-05-10T13:18:04;24.10;53.90
16160;DHT22;8185;57.818;15.224;2023-05-10T13:20:33;25.00;52.40
16160;DHT22;8185;57.818;15.224;2023-05-10T13:23:00;25.40;50.70
16160;DHT22;8185;57.818;15.224;2023-05-10T13:25:28;25.60;52.10
16160;DHT22;8185;57.818;15.224;2023-05-10T13:27:55;25.00;49.60
16160;DHT22;8185;57.818;15.224;2023-05-10T13:30:22;25.20;51.20
16160;DHT22;8185;57.818;15.224;2023-05-10T13:32:50;25.20;49.60
16160;DHT22;8185;57.818;15.224;2023-05-10T13:35:17;25.10;49.30
16160;DHT22;8185;57.818;15.224;2023-05-10T13:37:46;25.00;48.20
16160;DHT22;8185;57.818;15.224;2023-05-10T13:40:13;25.10;48.20
16160;DHT22;8185;57.818;15.224;2023-05-10T13:42:41;25.40;48.50
16160;DHT22;8185;57.818;15.224;2023-05-10T13:45:09;26.00;48.30
16160;DHT22;8185;57.818;15.224;2023-05-10T13:47:37;26.10;48.90
16160;DHT22;8185;57.818;15.224;2023-05-10T13:50:05;26.50;48.80
16160;DHT22;8185;57.818;15.224;2023-05-10T13:52:33;27.80;45.50
16160;DHT22;8185;57.818;15.224;2023-05-10T13:55:02;26.10;47.30
16160;DHT22;8185;57.818;15.224;2023-05-10T13:57:29;26.00;48.60
16160;DHT22;8185;57.818;15.224;2023-05-10T13:59:57;26.10;49.80
16160;DHT22;8185;57.818;15.224;2023-05-10T14:02:24;26.40;46.80
16160;DHT22;8185;57.818;15.224;2023-05-10T14:04:53;26.30;47.20
16160;DHT22;8185;57.818;15.224;2023-05-10T14:07:20;25.30;47.00
16160;DHT22;8185;57.818;15.224;2023-05-10T14:09:47;26.00;47.30
16160;DHT22;8185;57.818;15.224;2023-05-10T14:12:16;25.70;45.70
16160;DHT22;8185;57.818;15.224;2023-05-10T14:14:44;26.20;45.20
16160;DHT22;8185;57.818;15.224;2023-05-10T14:17:11;25.80;45.80
16160;DHT22;8185;57.818;15.224;2023-05-10T14:19:38;25.70;47.20
16160;DHT22;8185;57.818;15.224;2023-05-10T14:22:05;26.60;45.70
16160;DHT22;8185;57.818;15.224;2023-05-10T14:24:32;26.70;47.40
16160;DHT22;8185;57.818;15.224;2023-05-10T14:27:00;27.30;47.10
16160;DHT22;8185;57.818;15.224;2023-05-10T14:29:28;27.60;47.60
16160;DHT22;8185;57.818;15.224;2023-05-10T14:31:56;27.30;47.10
16160;DHT22;8185;57.818;15.224;2023-05-10T14:34:23;27.30;46.60
16160;DHT22;8185;57.818;15.224;2023-05-10T14:36:50;27.60;47.80
16160;DHT22;8185;57.818;15.224;2023-05-10T14:39:17;28.00;46.70
16160;DHT22;8185;57.818;15.224;2023-05-10T14:41:44;28.10;47.40
16160;DHT22;8185;57.818;15.224;2023-05-10T14:44:12;27.80;44.80
16160;DHT22;8185;57.818;15.224;2023-05-10T14:46:42;27.60;45.90
16160;DHT22;8185;57.818;15.224;2023-05-10T14:49:09;27.00;45.40
16160;DHT22;8185;57.818;15.224;2023-05-10T14:51:36;27.50;45.00
16160;DHT22;8185;57.818;15.224;2023-05-10T14:54:04;27.30;46.10
16160;DHT22;8185;57.818;15.224;2023-05-10T14:56:31;27.40;44.90
16160;DHT22;8185;57.818;15.224;2023-05-10T14:58:58;28.10;44.90
16160;DHT22;8185;57.818;15.224;2023-05-10T15:01:26;28.20;43.30
16160;DHT22;8185;57.818;15.224;2023-05-10T15:03:54;27.70;42.70
16160;DHT22;8185;57.818;15.224;2023-05-10T15:06:23;27.60;43.40
16160;DHT22;8185;57.818;15.224;2023-05-10T15:08:52;27.90;42.70
16160;DHT22;8185;57.818;15.224;2023-05-10T15:11:19;28.00;43.30
16160;DHT22;8185;57.818;15.224;2023-05-10T15:13:46;27.50;43.30
16160;DHT22;8185;57.818;15.224;2023-05-10T15:16:13;27.20;43.10
16160;DHT22;8185;57.818;15.224;2023-05-10T15:18:41;27.60;43.20
16160;DHT22;8185;57.818;15.224;2023-05-10T15:21:09;27.10;42.10
16160;DHT22;8185;57.818;15.224;2023-05-10T15:23:37;27.60;42.40
16160;DHT22;8185;57.818;15.224;2023-05-10T15:26:04;26.90;42.10
16160;DHT22;8185;57.818;15.224;2023-05-10T15:28:31;27.70;42.70
16160;DHT22;8185;57.818;15.224;2023-05-10T15:30:58;27.40;41.70
16160;DHT22;8185;57.818;15.224;2023-05-10T15:33:26;26.10;42.00
16160;DHT22;8185;57.818;15.224;2023-05-10T15:35:53;26.80;42.60
16160;DHT22;8185;57.818;15.224;2023-05-10T15:38:22;27.50;43.60
16160;DHT22;8185;57.818;15.224;2023-05-10T15:40:49;27.80;41.90
16160;DHT22;8185;57.818;15.224;2023-05-10T15:43:16;27.50;42.20
16160;DHT22;8185;57.818;15.224;2023-05-10T15:45:43;27.70;41.00
16160;DHT22;8185;57.818;15.224;2023-05-10T15:48:11;27.00;41.70